createdAt,value
2018-06-16T00:02:16.768Z,15.27
2018-06-16T00:04:45.308Z,15.26
2018-06-16T00:07:13.889Z,15.18
2018-06-16T00:09:42.416Z,15.29
2018-06-16T00:12:10.988Z,15.15
2018-06-16T00:14:39.510Z,15.10
2018-06-16T00:17:08.089Z,15.02
2018-06-16T00:19:36.612Z,15.04
2018-06-16T00:22:05.180Z,15.23
2018-06-16T00:27:02.737Z,15.15
2018-06-16T00:29:31.265Z,15.15
2018-06-16T00:31:59.813Z,15.14
2018-06-16T00:34:28.341Z,15.11
2018-06-16T00:36:56.890Z,14.91
2018-06-16T00:39:25.428Z,15.06
2018-06-16T00:41:54.207Z,15.11
2018-06-16T00:44:22.735Z,15.07
2018-06-16T00:46:51.289Z,15.05
2018-06-16T00:49:19.844Z,15.03
2018-06-16T00:51:48.371Z,14.83
2018-06-16T00:54:16.936Z,14.94
2018-06-16T00:56:51.903Z,15.04
2018-06-16T00:59:20.457Z,14.89
2018-06-16T01:01:48.999Z,14.58
2018-06-16T01:04:18.450Z,14.47
2018-06-16T01:06:46.959Z,14.58
2018-06-16T01:09:15.500Z,14.78
2018-06-16T01:11:44.020Z,14.78
2018-06-16T01:14:12.560Z,14.70
2018-06-16T01:16:41.073Z,14.59
2018-06-16T01:19:09.608Z,14.78
2018-06-16T01:21:38.113Z,14.78
2018-06-16T01:24:06.669Z,14.70
2018-06-16T01:26:35.190Z,14.71
2018-06-16T01:29:03.805Z,14.75
2018-06-16T01:31:32.350Z,14.75
2018-06-16T01:34:00.921Z,14.75
2018-06-16T01:36:29.490Z,14.75
2018-06-16T01:38:58.047Z,14.60
2018-06-16T01:41:26.609Z,14.63
2018-06-16T01:43:55.160Z,14.56
2018-06-16T01:46:23.704Z,14.50
2018-06-16T01:48:52.272Z,14.46
2018-06-16T01:51:20.789Z,14.47
2018-06-16T01:53:49.345Z,14.33
2018-06-16T01:56:18.873Z,14.35
2018-06-16T01:58:47.438Z,14.51
2018-06-16T02:01:16.000Z,14.56
2018-06-16T02:03:44.553Z,14.53
2018-06-16T02:06:13.108Z,14.52
2018-06-16T02:08:41.661Z,14.60
2018-06-16T02:11:10.216Z,14.66
2018-06-16T02:13:39.037Z,14.70
2018-06-16T02:16:07.548Z,14.68
2018-06-16T02:18:36.105Z,14.54
2018-06-16T02:21:04.629Z,14.55
2018-06-16T02:23:33.225Z,14.40
2018-06-16T02:26:01.763Z,14.53
2018-06-16T02:28:30.289Z,14.56
2018-06-16T02:30:58.862Z,14.54
2018-06-16T02:33:27.388Z,14.38
2018-06-16T02:35:55.936Z,14.39
2018-06-16T02:38:24.477Z,14.29
2018-06-16T02:40:53.032Z,14.38
2018-06-16T02:43:21.556Z,14.46
2018-06-16T02:45:50.118Z,14.48
2018-06-16T02:48:19.233Z,14.58
2018-06-16T02:50:48.069Z,14.56
2018-06-16T02:53:16.589Z,14.57
2018-06-16T02:55:45.416Z,14.61
2018-06-16T02:58:14.141Z,14.51
2018-06-16T03:00:43.032Z,14.52
2018-06-16T03:03:11.579Z,14.52
2018-06-16T03:05:40.166Z,14.49
2018-06-16T03:08:08.732Z,14.48
2018-06-16T03:10:37.281Z,14.53
2018-06-16T03:13:05.803Z,14.51
2018-06-16T03:15:34.370Z,14.54
2018-06-16T03:18:02.885Z,14.47
2018-06-16T03:20:31.445Z,14.53
2018-06-16T03:22:59.988Z,14.54
2018-06-16T03:25:28.549Z,14.52
2018-06-16T03:27:57.074Z,14.41
2018-06-16T03:30:25.662Z,14.25
2018-06-16T03:32:54.192Z,14.48
2018-06-16T03:35:22.748Z,14.59
2018-06-16T03:37:51.277Z,14.63
2018-06-16T03:40:19.924Z,14.59
2018-06-16T03:42:49.332Z,14.32
2018-06-16T03:45:17.892Z,14.53
2018-06-16T03:47:46.424Z,14.58
2018-06-16T03:50:14.992Z,14.59
2018-06-16T03:52:43.693Z,14.39
2018-06-16T03:55:12.253Z,14.50
2018-06-16T03:57:40.779Z,14.45
2018-06-16T04:00:09.412Z,14.70
2018-06-16T04:02:37.967Z,14.88
2018-06-16T04:05:06.596Z,14.86
2018-06-16T04:07:35.129Z,14.80
2018-06-16T04:10:03.719Z,14.90
2018-06-16T04:12:32.250Z,14.93
2018-06-16T04:15:00.841Z,14.99
2018-06-16T04:17:29.405Z,15.08
2018-06-16T04:19:57.924Z,14.97
2018-06-16T04:22:26.480Z,14.91
2018-06-16T04:24:55.042Z,14.94
2018-06-16T04:27:23.613Z,15.04
2018-06-16T04:29:52.164Z,15.15
2018-06-16T04:32:20.712Z,15.05
2018-06-16T04:34:49.582Z,15.29
2018-06-16T04:37:18.184Z,15.37
2018-06-16T04:39:46.724Z,15.32
2018-06-16T04:42:15.289Z,15.38
2018-06-16T04:44:45.410Z,15.37
2018-06-16T04:47:14.206Z,15.36
2018-06-16T04:49:42.768Z,15.45
2018-06-16T04:52:11.328Z,15.57
2018-06-16T04:54:39.856Z,15.39
2018-06-16T04:57:08.417Z,15.39
2018-06-16T04:59:36.940Z,15.54
2018-06-16T05:02:05.537Z,15.49
2018-06-16T05:04:34.073Z,15.45
2018-06-16T05:07:02.633Z,15.66
2018-06-16T05:09:31.160Z,15.77
2018-06-16T05:11:59.733Z,15.70
2018-06-16T05:14:28.260Z,15.88
2018-06-16T05:16:56.819Z,16.10
2018-06-16T05:19:25.374Z,16.17
2018-06-16T05:21:54.163Z,16.21
2018-06-16T05:24:22.717Z,16.24
2018-06-16T05:26:51.272Z,16.21
2018-06-16T05:29:19.825Z,16.25
2018-06-16T05:31:48.420Z,16.16
2018-06-16T05:34:17.889Z,16.19
2018-06-16T05:36:46.468Z,16.42
2018-06-16T05:39:15.001Z,16.56
2018-06-16T05:41:48.870Z,16.60
2018-06-16T05:44:19.732Z,16.40
2018-06-16T05:46:51.818Z,16.72
2018-06-16T05:49:25.706Z,16.77
2018-06-16T05:51:55.936Z,16.69
2018-06-16T05:54:27.721Z,16.87
2018-06-16T05:57:00.297Z,16.96
2018-06-16T05:59:30.891Z,17.12
2018-06-16T06:01:59.952Z,17.25
2018-06-16T06:04:33.617Z,17.27
2018-06-16T06:07:06.064Z,17.21
2018-06-16T06:09:39.433Z,17.19
2018-06-16T06:12:10.007Z,17.36
2018-06-16T06:14:43.906Z,17.32
2018-06-16T06:17:12.904Z,17.38
2018-06-16T06:19:46.698Z,17.58
2018-06-16T06:22:16.320Z,17.52
2018-06-16T06:24:44.942Z,17.56
2018-06-16T06:27:24.309Z,17.67
2018-06-16T06:29:57.741Z,17.71
2018-06-16T06:32:35.631Z,17.76
2018-06-16T06:35:10.053Z,17.86
2018-06-16T06:40:26.396Z,17.66
2018-06-16T06:42:57.125Z,17.78
2018-06-16T06:45:26.286Z,17.73
2018-06-16T06:48:02.850Z,17.90
2018-06-16T06:50:38.375Z,18.00
2018-06-16T06:53:12.451Z,17.84
2018-06-16T06:55:44.301Z,17.95
2018-06-16T06:58:16.321Z,18.08
2018-06-16T07:00:49.876Z,18.12
2018-06-16T07:03:21.809Z,18.30
2018-06-16T07:05:53.601Z,18.52
2018-06-16T07:08:22.605Z,18.62
2018-06-16T07:10:56.260Z,18.66
2018-06-16T07:13:33.569Z,18.71
2018-06-16T07:16:04.230Z,18.84
2018-06-16T07:18:40.018Z,18.78
2018-06-16T07:21:12.061Z,18.86
2018-06-16T07:23:44.597Z,18.91
2018-06-16T07:26:14.102Z,18.99
2018-06-16T07:28:45.536Z,18.97
2018-06-16T07:31:14.545Z,19.10
2018-06-16T07:33:50.832Z,19.12
2018-06-16T07:36:22.712Z,19.22
2018-06-16T07:38:54.014Z,19.42
2018-06-16T07:41:24.760Z,19.51
2018-06-16T07:43:55.541Z,19.69
2018-06-16T07:46:26.146Z,19.81
2018-06-16T07:48:58.868Z,19.86
2018-06-16T07:51:38.192Z,19.91
2018-06-16T07:54:08.792Z,20.09
2018-06-16T07:56:40.821Z,20.15
2018-06-16T07:59:13.812Z,20.25
2018-06-16T08:01:48.144Z,20.35
2018-06-16T08:04:25.325Z,20.42
2018-06-16T08:07:00.692Z,20.57
2018-06-16T08:09:36.593Z,20.49
2018-06-16T08:12:09.413Z,20.64
2018-06-16T08:14:45.212Z,20.90
2018-06-16T08:17:14.443Z,20.80
2018-06-16T08:19:47.693Z,21.03
2018-06-16T08:22:19.051Z,21.20
2018-06-16T08:24:48.248Z,21.35
2018-06-16T08:27:18.718Z,21.39
2018-06-16T08:29:49.719Z,21.36
2018-06-16T08:32:27.739Z,21.32
2018-06-16T08:34:59.507Z,21.39
2018-06-16T08:37:28.064Z,21.31
2018-06-16T08:40:08.998Z,21.21
2018-06-16T08:42:41.783Z,21.26
2018-06-16T08:45:10.587Z,21.27
2018-06-16T08:47:39.765Z,21.19
2018-06-16T08:50:13.858Z,21.22
2018-06-16T08:52:46.418Z,21.17
2018-06-16T08:55:15.882Z,21.34
2018-06-16T08:57:46.213Z,21.35
2018-06-16T09:00:14.892Z,21.45
2018-06-16T09:02:48.708Z,21.58
2018-06-16T09:05:19.736Z,21.68
2018-06-16T09:07:51.948Z,21.85
2018-06-16T09:10:22.447Z,21.81
2018-06-16T09:12:52.073Z,21.81
2018-06-16T09:15:24.756Z,21.82
2018-06-16T09:17:56.794Z,22.09
2018-06-16T09:20:27.018Z,22.32
2018-06-16T09:22:55.685Z,22.47
2018-06-16T09:25:30.667Z,22.43
2018-06-16T09:27:59.807Z,22.43
2018-06-16T09:30:29.368Z,22.75
2018-06-16T09:33:05.138Z,23.02
2018-06-16T09:35:36.716Z,23.24
2018-06-16T09:38:08.616Z,22.51
2018-06-16T09:40:40.981Z,22.62
2018-06-16T09:43:09.580Z,23.00
2018-06-16T09:45:38.537Z,23.03
2018-06-16T09:48:07.126Z,23.19
2018-06-16T09:50:39.651Z,23.16
2018-06-16T09:53:11.778Z,23.41
2018-06-16T09:55:43.338Z,23.64
2018-06-16T09:58:13.931Z,23.33
2018-06-16T10:00:46.988Z,23.22
2018-06-16T10:03:19.289Z,23.29
2018-06-16T10:05:53.827Z,23.42
2018-06-16T10:08:22.476Z,23.66
2018-06-16T10:10:51.005Z,23.30
2018-06-16T10:13:24.640Z,23.21
2018-06-16T10:15:54.430Z,23.60
2018-06-16T10:18:24.495Z,23.58
2018-06-16T10:21:00.631Z,23.69
2018-06-16T10:23:34.147Z,23.70
2018-06-16T10:26:07.253Z,23.50
2018-06-16T10:28:39.025Z,23.40
2018-06-16T10:31:09.032Z,23.31
2018-06-16T10:33:38.928Z,23.41
2018-06-16T10:36:08.392Z,23.77
2018-06-16T10:38:37.493Z,23.82
2018-06-16T10:41:06.240Z,23.59
2018-06-16T10:43:34.810Z,23.32
2018-06-16T10:46:03.694Z,23.68
2018-06-16T10:48:32.217Z,23.75
2018-06-16T10:51:00.843Z,23.90
2018-06-16T10:53:29.405Z,23.91
2018-06-16T10:55:57.964Z,23.60
2018-06-16T10:58:26.462Z,23.73
2018-06-16T11:00:55.405Z,23.65
2018-06-16T11:03:24.658Z,23.98
2018-06-16T11:05:54.244Z,23.68
2018-06-16T11:08:24.416Z,23.80
2018-06-16T11:10:54.108Z,23.93
2018-06-16T11:13:23.904Z,24.17
2018-06-16T11:15:53.752Z,24.35
2018-06-16T11:18:24.136Z,24.03
2018-06-16T11:20:54.022Z,23.88
2018-06-16T11:23:23.990Z,23.76
2018-06-16T11:25:53.631Z,23.71
2018-06-16T11:28:22.300Z,23.83
2018-06-16T11:30:53.239Z,23.77
2018-06-16T11:33:23.389Z,24.00
2018-06-16T11:35:53.511Z,24.04
2018-06-16T11:38:23.610Z,24.09
2018-06-16T11:40:55.038Z,23.91
2018-06-16T11:43:23.649Z,23.94
2018-06-16T11:45:53.760Z,23.96
2018-06-16T11:48:27.352Z,23.91
2018-06-16T11:50:56.255Z,23.96
2018-06-16T11:53:27.556Z,24.12
2018-06-16T11:55:56.072Z,23.79
2018-06-16T11:58:24.617Z,24.11
2018-06-16T12:00:53.168Z,24.23
2018-06-16T12:03:21.985Z,23.86
2018-06-16T12:05:52.115Z,23.64
2018-06-16T12:08:20.777Z,23.53
2018-06-16T12:10:49.569Z,23.68
2018-06-16T12:13:18.149Z,23.84
2018-06-16T12:15:46.685Z,24.06
2018-06-16T12:18:15.261Z,23.59
2018-06-16T12:20:45.477Z,23.58
2018-06-16T12:23:14.076Z,23.76
2018-06-16T12:25:42.602Z,23.64
2018-06-16T12:28:11.192Z,23.61
2018-06-16T12:30:39.725Z,23.99
2018-06-16T12:33:12.988Z,24.23
2018-06-16T12:35:41.517Z,24.21
2018-06-16T12:38:10.076Z,24.24
2018-06-16T12:40:38.637Z,23.98
2018-06-16T12:43:14.042Z,24.15
2018-06-16T12:45:43.092Z,23.98
2018-06-16T12:48:17.485Z,23.98
2018-06-16T12:50:46.013Z,23.87
2018-06-16T12:53:14.628Z,23.72
2018-06-16T12:55:43.517Z,23.68
2018-06-16T12:58:12.068Z,24.00
2018-06-16T13:00:40.661Z,24.23
2018-06-16T13:03:09.196Z,24.11
2018-06-16T13:05:37.704Z,24.33
2018-06-16T13:08:06.429Z,24.16
2018-06-16T13:10:35.698Z,24.08
2018-06-16T13:13:05.676Z,24.23
2018-06-16T13:15:34.717Z,24.23
2018-06-16T13:18:04.953Z,24.44
2018-06-16T13:20:34.569Z,24.67
2018-06-16T13:23:04.537Z,24.54
2018-06-16T13:25:34.432Z,24.24
2018-06-16T13:28:04.281Z,24.26
2018-06-16T13:30:34.147Z,24.42
2018-06-16T13:33:09.081Z,24.21
2018-06-16T13:35:39.187Z,24.41
2018-06-16T13:38:09.863Z,24.60
2018-06-16T13:40:39.860Z,24.87
2018-06-16T13:43:10.219Z,24.85
2018-06-16T13:45:40.024Z,24.84
2018-06-16T13:48:10.286Z,25.08
2018-06-16T13:50:40.262Z,25.42
2018-06-16T13:53:10.237Z,25.18
2018-06-16T13:55:40.297Z,25.63
2018-06-16T13:58:13.472Z,25.52
2018-06-16T14:00:42.396Z,25.54
2018-06-16T14:03:17.484Z,25.46
2018-06-16T14:05:48.705Z,25.22
2018-06-16T14:08:22.859Z,25.33
2018-06-16T14:10:56.461Z,25.16
2018-06-16T14:13:29.834Z,25.40
2018-06-16T14:15:59.015Z,24.96
2018-06-16T14:18:29.372Z,24.15
2018-06-16T14:20:59.867Z,24.26
2018-06-16T14:23:28.964Z,25.00
2018-06-16T14:26:00.714Z,25.50
2018-06-16T14:28:34.989Z,25.63
2018-06-16T14:31:06.191Z,25.51
2018-06-16T14:33:39.949Z,25.49
2018-06-16T14:36:10.165Z,25.62
2018-06-16T14:38:41.033Z,25.53
2018-06-16T14:41:10.518Z,25.65
2018-06-16T14:43:39.910Z,25.86
2018-06-16T14:46:09.005Z,25.78
2018-06-16T14:48:42.529Z,25.94
2018-06-16T14:51:12.787Z,25.96
2018-06-16T14:53:44.934Z,26.11
2018-06-16T14:56:16.209Z,26.19
2018-06-16T14:58:48.632Z,26.15
2018-06-16T15:01:23.096Z,25.64
2018-06-16T15:03:58.057Z,25.41
2018-06-16T15:06:28.580Z,25.16
2018-06-16T15:08:57.512Z,25.01
2018-06-16T15:11:30.159Z,25.59
2018-06-16T15:14:03.181Z,26.11
2018-06-16T15:16:33.850Z,26.64
2018-06-16T15:19:06.410Z,26.60
2018-06-16T15:21:37.581Z,26.41
2018-06-16T15:24:08.723Z,26.70
2018-06-16T15:26:44.720Z,25.94
2018-06-16T15:29:14.090Z,26.16
2018-06-16T15:31:50.753Z,25.87
2018-06-16T15:34:23.211Z,25.76
2018-06-16T15:36:54.904Z,26.18
2018-06-16T15:39:30.427Z,25.90
2018-06-16T15:42:01.970Z,25.74
2018-06-16T15:44:33.852Z,25.34
2018-06-16T15:47:04.188Z,25.08
2018-06-16T15:49:33.180Z,25.48
2018-06-16T15:52:02.194Z,25.84
2018-06-16T15:54:36.412Z,26.26
2018-06-16T15:57:07.476Z,26.16
2018-06-16T15:59:38.767Z,26.15
2018-06-16T16:02:10.544Z,25.66
2018-06-16T16:04:41.837Z,25.19
2018-06-16T16:07:12.922Z,25.02
2018-06-16T16:09:45.675Z,25.20
2018-06-16T16:12:17.756Z,25.78
2018-06-16T16:14:46.404Z,25.81
2018-06-16T16:17:15.065Z,25.81
2018-06-16T16:19:43.649Z,25.25
2018-06-16T16:22:12.232Z,25.17
2018-06-16T16:24:47.424Z,24.92
2018-06-16T16:27:20.876Z,24.48
2018-06-16T16:29:53.422Z,24.10
2018-06-16T16:32:26.145Z,24.10
2018-06-16T16:34:54.700Z,23.94
2018-06-16T16:37:28.161Z,23.73
2018-06-16T16:40:01.195Z,23.56
2018-06-16T16:42:31.250Z,23.28
2018-06-16T16:45:03.841Z,23.15
2018-06-16T16:47:33.110Z,23.13
2018-06-16T16:50:07.461Z,23.05
2018-06-16T16:52:38.845Z,23.83
2018-06-16T16:55:10.151Z,23.01
2018-06-16T16:57:40.224Z,22.83
2018-06-16T17:00:09.037Z,22.78
2018-06-16T17:02:42.276Z,22.82
2018-06-16T17:05:21.515Z,22.81
2018-06-16T17:07:51.334Z,22.91
2018-06-16T17:10:19.930Z,22.72
2018-06-16T17:12:59.965Z,22.70
2018-06-16T17:15:32.775Z,22.69
2018-06-16T17:18:04.800Z,22.75
2018-06-16T17:20:35.046Z,22.85
2018-06-16T17:23:03.622Z,24.15
2018-06-16T17:25:36.900Z,26.38
2018-06-16T17:28:11.891Z,26.13
2018-06-16T17:30:49.238Z,27.05
2018-06-16T17:33:23.051Z,26.46
2018-06-16T17:35:51.834Z,28.21
2018-06-16T17:38:20.375Z,29.69
2018-06-16T17:40:54.234Z,27.13
2018-06-16T17:43:27.191Z,28.55
2018-06-16T17:45:59.272Z,29.85
2018-06-16T17:48:32.880Z,28.74
2018-06-16T17:51:02.810Z,28.06
2018-06-16T17:53:36.331Z,26.75
2018-06-16T17:56:11.986Z,26.81
2018-06-16T17:58:46.824Z,25.90
2018-06-16T18:01:23.190Z,26.55
2018-06-16T18:03:51.885Z,25.49
2018-06-16T18:06:21.203Z,25.01
2018-06-16T18:08:51.934Z,25.06
2018-06-16T18:11:22.915Z,25.20
2018-06-16T18:13:52.854Z,24.80
2018-06-16T18:16:21.407Z,24.28
2018-06-16T18:18:50.009Z,24.67
2018-06-16T18:21:18.565Z,24.60
2018-06-16T18:23:47.159Z,24.57
2018-06-16T18:26:15.890Z,24.14
2018-06-16T18:28:44.672Z,24.10
2018-06-16T18:31:13.264Z,23.75
2018-06-16T18:33:41.820Z,23.34
2018-06-16T18:36:10.441Z,23.64
2018-06-16T18:38:38.977Z,23.48
2018-06-16T18:41:07.544Z,23.36
2018-06-16T18:43:36.339Z,23.43
2018-06-16T18:46:05.395Z,23.45
2018-06-16T18:48:33.928Z,22.95
2018-06-16T18:51:02.750Z,22.82
2018-06-16T18:53:31.292Z,22.57
2018-06-16T18:55:59.841Z,22.21
2018-06-16T18:58:28.357Z,22.23
2018-06-16T19:00:56.933Z,22.13
2018-06-16T19:03:26.826Z,21.81
2018-06-16T19:05:55.674Z,21.78
2018-06-16T19:08:24.260Z,21.82
2018-06-16T19:10:52.796Z,21.54
2018-06-16T19:13:21.333Z,21.29
2018-06-16T19:15:49.912Z,21.20
2018-06-16T19:18:36.730Z,21.23
2018-06-16T19:21:05.521Z,21.13
2018-06-16T19:23:34.032Z,21.12
2018-06-16T19:26:02.909Z,21.14
2018-06-16T19:28:32.252Z,20.92
2018-06-16T19:31:00.776Z,20.80
2018-06-16T19:33:29.285Z,20.55
2018-06-16T19:35:57.847Z,20.73
2018-06-16T19:38:29.530Z,20.70
2018-06-16T19:40:58.224Z,20.42
2018-06-16T19:43:26.730Z,20.45
2018-06-16T19:45:58.153Z,20.27
2018-06-16T19:48:26.737Z,20.34
2018-06-16T19:50:55.706Z,20.22
2018-06-16T19:53:24.249Z,20.26
2018-06-16T19:55:54.069Z,20.29
2018-06-16T19:58:22.621Z,20.15
2018-06-16T20:00:51.169Z,20.11
2018-06-16T20:03:19.832Z,20.12
2018-06-16T20:05:48.381Z,20.23
2018-06-16T20:08:16.944Z,20.04
2018-06-16T20:10:45.497Z,19.86
2018-06-16T20:13:17.937Z,19.90
2018-06-16T20:15:46.597Z,19.92
2018-06-16T20:18:15.279Z,19.90
2018-06-16T20:20:43.820Z,19.83
2018-06-16T20:23:12.380Z,19.79
2018-06-16T20:25:40.955Z,19.70
2018-06-16T20:28:09.497Z,19.69
2018-06-16T20:30:38.076Z,19.62
2018-06-16T20:33:06.625Z,19.54
2018-06-16T20:35:39.685Z,19.40
2018-06-16T20:38:08.245Z,19.37
2018-06-16T20:40:40.372Z,19.41
2018-06-16T20:43:09.049Z,19.30
2018-06-16T20:45:37.648Z,19.20
2018-06-16T20:48:06.228Z,19.31
2018-06-16T20:50:34.797Z,19.14
2018-06-16T20:53:03.384Z,19.06
2018-06-16T20:55:31.969Z,19.02
2018-06-16T20:58:00.505Z,19.04
2018-06-16T21:00:29.113Z,19.07
2018-06-16T21:02:57.621Z,18.79
2018-06-16T21:05:27.461Z,18.67
2018-06-16T21:07:57.696Z,18.57
2018-06-16T21:10:27.086Z,18.48
2018-06-16T21:12:55.597Z,18.46
2018-06-16T21:15:24.136Z,18.28
2018-06-16T21:17:52.900Z,18.23
2018-06-16T21:20:21.531Z,18.20
2018-06-16T21:22:50.043Z,18.09
2018-06-16T21:25:19.860Z,17.81
2018-06-16T21:27:48.629Z,17.74
2018-06-16T21:30:17.518Z,17.72
2018-06-16T21:32:46.074Z,17.62
2018-06-16T21:35:14.704Z,17.60
2018-06-16T21:37:43.256Z,17.73
2018-06-16T21:40:11.780Z,17.85
2018-06-16T21:42:40.372Z,17.74
2018-06-16T21:45:09.173Z,17.74
2018-06-16T21:47:37.675Z,17.78
2018-06-16T21:50:11.913Z,17.88
2018-06-16T21:52:40.447Z,17.71
2018-06-16T21:55:15.419Z,17.70
2018-06-16T21:57:46.899Z,17.67
2018-06-16T22:00:22.051Z,17.64
2018-06-16T22:02:50.725Z,17.61
2018-06-16T22:05:22.843Z,17.53
2018-06-16T22:07:59.137Z,17.45
2018-06-16T22:10:29.320Z,17.34
2018-06-16T22:12:57.962Z,17.25
2018-06-16T22:15:27.877Z,17.14
2018-06-16T22:17:59.161Z,17.09
2018-06-16T22:20:28.453Z,17.05
2018-06-16T22:22:57.349Z,17.13
2018-06-16T22:25:25.969Z,17.12
2018-06-16T22:27:59.634Z,17.07
2018-06-16T22:30:30.748Z,17.03
2018-06-16T22:33:01.782Z,16.58
2018-06-16T22:35:32.685Z,16.62
2018-06-16T22:38:03.272Z,16.67
2018-06-16T22:40:34.259Z,16.57
2018-06-16T22:43:05.085Z,16.69
2018-06-16T22:45:33.786Z,16.75
2018-06-16T22:48:04.735Z,16.62
2018-06-16T22:50:33.445Z,16.50
2018-06-16T22:53:05.722Z,16.44
2018-06-16T22:55:35.336Z,16.35
2018-06-16T22:58:05.610Z,16.29
2018-06-16T23:00:38.624Z,16.24
2018-06-16T23:03:08.029Z,16.15
2018-06-16T23:05:38.034Z,16.19
2018-06-16T23:08:11.004Z,16.15
2018-06-16T23:10:41.082Z,16.04
2018-06-16T23:13:12.662Z,16.00
2018-06-16T23:15:42.583Z,15.84
2018-06-16T23:18:11.857Z,15.87
2018-06-16T23:20:40.599Z,15.92
2018-06-16T23:23:14.796Z,15.95
2018-06-16T23:25:43.464Z,15.82
2018-06-16T23:28:12.010Z,15.75
2018-06-16T23:30:40.540Z,15.71
2018-06-16T23:33:09.125Z,15.75
2018-06-16T23:35:37.629Z,15.58
2018-06-16T23:38:06.205Z,15.66
2018-06-16T23:40:34.756Z,15.52
2018-06-16T23:43:03.360Z,15.51
2018-06-16T23:45:31.885Z,15.23
2018-06-16T23:48:00.453Z,15.26
2018-06-16T23:50:29.945Z,15.38
2018-06-16T23:52:58.489Z,15.21
2018-06-16T23:55:26.989Z,15.25
2018-06-16T23:57:55.629Z,15.35
